Powells Point, North Carolina
Current Conditions -  °F | °C
As of 3:15 AM on Monday 26 Jan 2015 (Local Time) from KFFA Reporting Station
Clear Clear  
Wind Chill: 40°   Ceiling: Unl
Heat Index: 43°   Visibility: 10mi
Dew Point: 41°   Wind: 5mph
Humidity: 94%   Direction: 90°E
Pressure: 29.78"   Gusts: NA
Location:  36.16°N, 75.86°W
Report Text: KFFA 260815Z AUTO 09004KT 10SM CLR 06/05 A2978 RMK AO2 T00610052
Loading
Personal Weather Stations






























Interactive Weather Map New forecast layout! Learn more

10-Day Weather Forecast

Advertisements
Track Severe Weather on mobile